Detall de PIREP

Printer-friendly versionPDF version

[2012/02/12 14:42:00]
Flight IATA:CT1004
Pilot Number:037
Company ICAO:CAT
Aircraft Type:B752/E
PAX:83
Departing Airport: LEBL
Destination Airport: LEAM
Alternate Airport:LEMG
Online: VATSIM
Route:LOTOS UM985 VLC UN860 RESTU AMR
Flight Level:F310
No Slew and time accel
No pause
Crash detect
Detect pilot in Cockpit between each 30 and 45 minutes
14:42 Zero fuel Weight: 153901 Lbs, Fuel Weight: 19063 Lbs
14:42 VATSIM:LEBL 121430Z 16006KT 120V210 9999 FEW030 07/M03 Q1019 NOSIG
14:42 VATSIM:LEAM 121430Z 20006KT 160V250 CAVOK 11/M05 Q1019
14:48 Parking Brakes off
14:57 Take-off
14:57 Take off Weight: 171913 Lbs
14:57 Wind: 160º @ 006 Knots Heading: 242º
14:57 POS N41º 17´ 59´´ E002º 05´ 10´´
14:57 Flaps:3 at 174 Knots
14:57 Gear Up: 182 Knots
14:57 Flaps:2 at 211 Knots
14:58 Flaps:1 at 212 Knots
14:59 Flaps:0 at 212 Knots
15:08 TOC
15:08 Fuel Weight: 15055 Lb
15:12 Wind:288º@021 Knots Heading: 230º Ground Speed: 473 Knots Altitude 31167 ft
15:27 Wind:097º@015 Knots Heading: 204º Ground Speed: 490 Knots Altitude 31177 ft
15:36 TOD
15:36 Fuel Weight: 10546 Lb
15:42 Wind:094º@007 Knots Heading: 209º Ground Speed: 298 Knots Altitude 18202 ft
15:50 Flaps:1 at 210 Knots
15:51 Flaps:2 at 189 Knots
15:51 Gear Down: 190 Knots
15:52 Flaps:3 at 177 Knots
15:53 Flaps:4 at 156 Knots
15:53 Flaps:5 at 156 Knots
15:54 Flaps:6 at 152 Knots
15:54 TouchDown:Rate -197 ft/min Speed: 136 Knots
15:55 VATSIM:LEAM 121530Z 20003KT 130V240 CAVOK 11/M06 Q1019
15:55 Land
15:55 Wind:242º@003 Knots
15:55 Heading: 252º
15:55 Flight Duration: 00:58
15:55 Landing Weight: 163344 Lbs
15:55 POS N36º 50´ 34´´ W002º 22´ 24´´
15:59 Parking brakes on
15:59 Block to Block Duration: 01:11
15:59 Final Fuel: 8990 Lbls
15:59 Spent Fuel: 10072 Lbls
15:59Flight Length: 266 NM
15:59 TOD Land Length: 25 NM

Exportar CSV

Powered by Drupal - Modified by Danger4k